createdAt,value
2023-01-26T00:01:18.712Z,100663.88
2023-01-26T00:03:45.965Z,100660.03
2023-01-26T00:06:15.348Z,100665.50
2023-01-26T00:08:44.156Z,100656.75
2023-01-26T00:11:13.299Z,100661.13
2023-01-26T00:13:40.128Z,100656.44
2023-01-26T00:16:14.955Z,100654.00
2023-01-26T00:18:41.938Z,100656.72
2023-01-26T00:21:20.350Z,100659.22
2023-01-26T00:23:49.162Z,100653.44
2023-01-26T00:26:19.075Z,100652.91
2023-01-26T00:28:45.646Z,100652.63
2023-01-26T00:31:17.154Z,100655.63
2023-01-26T00:33:43.784Z,100655.91
2023-01-26T00:36:10.436Z,100643.00
2023-01-26T00:38:37.225Z,100644.38
2023-01-26T00:41:03.961Z,100640.56
2023-01-26T00:43:30.563Z,100638.09
2023-01-26T00:45:56.966Z,100633.13
2023-01-26T00:48:24.867Z,100629.28
2023-01-26T00:50:52.523Z,100637.81
2023-01-26T00:53:19.148Z,100640.81
2023-01-26T00:55:45.691Z,100637.22
2023-01-26T00:58:12.047Z,100639.16
2023-01-26T01:00:38.897Z,100634.50
2023-01-26T01:03:06.459Z,100631.47
2023-01-26T01:05:34.126Z,100635.03
2023-01-26T01:08:02.537Z,100632.56
2023-01-26T01:10:29.383Z,100626.84
2023-01-26T01:12:57.563Z,100625.44
2023-01-26T01:15:25.087Z,100626.53
2023-01-26T01:17:51.693Z,100625.44
2023-01-26T01:20:18.238Z,100622.69
2023-01-26T01:22:44.864Z,100621.31
2023-01-26T01:25:13.979Z,100624.09
2023-01-26T01:27:40.903Z,100622.72
2023-01-26T01:30:08.679Z,100630.66
2023-01-26T01:32:36.522Z,100624.09
2023-01-26T01:35:03.868Z,100623.28
2023-01-26T01:37:30.994Z,100620.25
2023-01-26T01:39:57.583Z,100616.94
2023-01-26T01:42:24.458Z,100615.84
2023-01-26T01:45:37.285Z,100614.19
2023-01-26T01:48:05.232Z,100607.66
2023-01-26T01:50:37.219Z,100598.03
2023-01-26T01:53:04.408Z,100594.19
2023-01-26T01:55:31.203Z,100602.97
2023-01-26T01:58:00.219Z,100589.78
2023-01-26T02:00:28.071Z,100578.56
2023-01-26T02:03:16.820Z,100583.22
2023-01-26T02:06:09.290Z,100576.06
2023-01-26T02:08:43.806Z,100579.88
2023-01-26T02:11:20.629Z,100581.25
2023-01-26T02:13:49.021Z,100572.50
2023-01-26T02:16:16.351Z,100567.00
2023-01-26T02:18:44.041Z,100565.94
2023-01-26T02:21:13.289Z,100562.91
2023-01-26T02:24:08.166Z,100557.41
2023-01-26T02:26:36.178Z,100555.78
2023-01-26T02:29:07.870Z,100557.41
2023-01-26T02:31:35.048Z,100549.44
2023-01-26T02:34:01.897Z,100548.06
2023-01-26T02:36:30.643Z,100539.28
2023-01-26T02:39:19.460Z,100546.66
2023-01-26T02:42:06.416Z,100532.41
2023-01-26T02:44:33.259Z,100526.09
2023-01-26T02:47:00.278Z,100523.34
2023-01-26T02:49:45.988Z,100524.44
2023-01-26T02:52:13.351Z,100511.81
2023-01-26T02:54:58.985Z,100512.34
2023-01-26T02:57:26.573Z,100511.81
2023-01-26T02:59:53.220Z,100515.69
2023-01-26T03:02:19.759Z,100508.00
2023-01-26T03:04:46.276Z,100514.59
2023-01-26T03:07:12.746Z,100519.31
2023-01-26T03:09:39.164Z,100521.22
2023-01-26T03:12:06.164Z,100516.81
2023-01-26T03:14:33.217Z,100519.00
2023-01-26T03:16:59.923Z,100510.75
2023-01-26T03:19:45.313Z,100508.00
2023-01-26T03:22:35.797Z,100505.28
2023-01-26T03:25:21.112Z,100504.16
2023-01-26T03:27:48.857Z,100508.03
2023-01-26T03:30:18.471Z,100505.53
2023-01-26T03:32:45.749Z,100498.13
2023-01-26T03:35:15.545Z,100498.69
2023-01-26T03:37:54.497Z,100499.28
2023-01-26T03:40:39.711Z,100499.25
2023-01-26T03:43:28.103Z,100501.44
2023-01-26T03:46:13.511Z,100498.69
2023-01-26T03:48:58.755Z,100500.34
2023-01-26T03:51:44.207Z,100500.06
2023-01-26T03:54:29.535Z,100495.94
2023-01-26T03:56:55.924Z,100485.53
2023-01-26T03:59:38.268Z,100489.06
2023-01-26T04:02:29.202Z,100494.25
2023-01-26T04:05:14.290Z,100494.03
2023-01-26T04:08:00.435Z,100481.94
2023-01-26T04:10:27.442Z,100475.38
2023-01-26T04:13:12.410Z,100467.44
2023-01-26T04:15:57.841Z,100473.47
2023-01-26T04:18:42.909Z,100473.44
2023-01-26T04:21:28.214Z,100472.34
2023-01-26T04:23:58.302Z,100467.94
2023-01-26T04:26:36.759Z,100468.75
2023-01-26T04:29:23.825Z,100471.53
2023-01-26T04:31:50.535Z,100467.66
2023-01-26T04:34:16.972Z,100460.81
2023-01-26T04:36:43.555Z,100464.94
2023-01-26T04:39:10.658Z,100458.34
2023-01-26T04:41:37.140Z,100453.41
2023-01-26T04:44:03.657Z,100457.03
2023-01-26T04:46:30.106Z,100451.50
2023-01-26T04:48:56.533Z,100450.97
2023-01-26T04:51:23.034Z,100449.03
2023-01-26T04:53:51.174Z,100445.75
2023-01-26T04:56:29.668Z,100445.47
2023-01-26T04:58:59.022Z,100437.81
2023-01-26T05:01:25.702Z,100443.81
2023-01-26T05:03:52.778Z,100445.75
2023-01-26T05:06:19.376Z,100448.75
2023-01-26T05:08:45.783Z,100447.38
2023-01-26T05:11:12.178Z,100449.00
2023-01-26T05:13:39.499Z,100460.78
2023-01-26T05:16:07.832Z,100455.84
2023-01-26T05:18:34.429Z,100453.13
2023-01-26T05:21:00.935Z,100456.13
2023-01-26T05:23:27.480Z,100458.66
2023-01-26T05:25:55.045Z,100461.41
2023-01-26T05:28:21.465Z,100460.31
2023-01-26T05:30:48.057Z,100466.34
2023-01-26T05:33:15.674Z,100471.53
2023-01-26T05:35:42.833Z,100459.75
2023-01-26T05:38:09.317Z,100462.22
2023-01-26T05:40:35.772Z,100451.28
2023-01-26T05:43:03.230Z,100461.13
2023-01-26T05:45:30.079Z,100456.47
2023-01-26T05:47:59.856Z,100461.94
2023-01-26T05:50:26.469Z,100457.53
2023-01-26T05:52:52.972Z,100455.06
2023-01-26T05:55:20.407Z,100461.91
2023-01-26T05:57:46.903Z,100455.63
2023-01-26T06:00:15.988Z,100459.47
2023-01-26T06:02:42.452Z,100459.19
2023-01-26T06:05:09.330Z,100453.75
2023-01-26T06:07:35.740Z,100460.28
2023-01-26T06:10:02.203Z,100460.56
2023-01-26T06:12:35.258Z,100455.34
2023-01-26T06:15:02.374Z,100467.44
2023-01-26T06:17:28.775Z,100461.41
2023-01-26T06:19:55.129Z,100463.88
2023-01-26T06:22:21.757Z,100469.06
2023-01-26T06:24:48.160Z,100467.72
2023-01-26T06:27:15.996Z,100474.03
2023-01-26T06:29:44.670Z,100480.34
2023-01-26T06:32:12.444Z,100468.00
2023-01-26T06:34:38.970Z,100473.75
2023-01-26T06:37:05.786Z,100472.91
2023-01-26T06:39:32.289Z,100463.31
2023-01-26T06:41:58.788Z,100469.09
2023-01-26T06:44:25.259Z,100467.44
2023-01-26T06:46:51.637Z,100465.78
2023-01-26T06:49:18.035Z,100472.94
2023-01-26T06:51:47.514Z,100466.34
2023-01-26T06:54:14.913Z,100466.06
2023-01-26T06:56:41.466Z,100464.69
2023-01-26T06:59:10.654Z,100459.47
2023-01-26T07:01:39.812Z,100455.09
2023-01-26T07:04:06.340Z,100462.53
2023-01-26T07:06:32.862Z,100459.50
2023-01-26T07:08:59.241Z,100468.53
2023-01-26T07:11:25.874Z,100458.91
2023-01-26T07:13:53.406Z,100458.66
2023-01-26T07:16:19.895Z,100460.84
2023-01-26T07:18:46.509Z,100447.94
2023-01-26T07:21:15.259Z,100450.41
2023-01-26T07:23:42.583Z,100454.50
2023-01-26T07:26:09.404Z,100454.75
2023-01-26T07:28:35.858Z,100455.06
2023-01-26T07:31:03.850Z,100456.69
2023-01-26T07:33:31.209Z,100455.84
2023-01-26T07:35:58.377Z,100456.13
2023-01-26T07:38:25.634Z,100448.69
2023-01-26T07:40:52.326Z,100457.72
2023-01-26T07:43:21.884Z,100454.19
2023-01-26T07:45:51.502Z,100456.91
2023-01-26T07:48:21.781Z,100457.72
2023-01-26T07:50:48.614Z,100450.03
2023-01-26T07:53:16.766Z,100454.16
2023-01-26T07:55:46.327Z,100454.69
2023-01-26T07:58:13.111Z,100460.72
2023-01-26T08:00:40.820Z,100458.00
2023-01-26T08:03:08.119Z,100459.41
2023-01-26T08:05:35.803Z,100459.06
2023-01-26T08:08:02.532Z,100456.66
2023-01-26T08:10:31.594Z,100460.25
2023-01-26T08:13:01.230Z,100454.97
2023-01-26T08:15:28.550Z,100457.97
2023-01-26T08:17:55.044Z,100454.94
2023-01-26T08:20:22.013Z,100461.81
2023-01-26T08:22:48.469Z,100456.31
2023-01-26T08:25:14.972Z,100456.59
2023-01-26T08:27:41.387Z,100458.81
2023-01-26T08:30:08.473Z,100449.72
2023-01-26T08:32:35.104Z,100459.03
2023-01-26T08:35:02.718Z,100448.06
2023-01-26T08:37:29.352Z,100446.97
2023-01-26T08:39:55.961Z,100446.47
2023-01-26T08:42:22.922Z,100445.34
2023-01-26T08:44:50.528Z,100444.81
2023-01-26T08:47:17.120Z,100441.78
2023-01-26T08:49:43.492Z,100437.66
2023-01-26T08:52:09.849Z,100442.88
2023-01-26T08:54:36.449Z,100451.41
2023-01-26T08:57:02.852Z,100447.84
2023-01-26T08:59:29.221Z,100442.06
2023-01-26T09:01:55.998Z,100461.00
2023-01-26T09:04:22.535Z,100459.06
2023-01-26T09:06:48.887Z,100462.41
2023-01-26T09:09:15.588Z,100467.13
2023-01-26T09:11:43.040Z,100458.06
2023-01-26T09:14:09.542Z,100452.00
2023-01-26T09:16:36.064Z,100461.09
2023-01-26T09:19:02.699Z,100460.81
2023-01-26T09:21:29.113Z,100461.38
2023-01-26T09:23:56.443Z,100466.59
2023-01-26T09:26:23.145Z,100464.09
2023-01-26T09:28:51.547Z,100474.53
2023-01-26T09:31:18.420Z,100473.66
2023-01-26T09:33:45.455Z,100467.09
2023-01-26T09:36:12.699Z,100472.31
2023-01-26T09:38:40.008Z,100481.03
2023-01-26T09:41:17.959Z,100478.06
2023-01-26T09:43:48.661Z,100483.78
2023-01-26T09:46:15.078Z,100480.22
2023-01-26T09:49:06.477Z,100471.19
2023-01-26T09:52:02.358Z,100476.09
2023-01-26T09:54:33.979Z,100472.56
2023-01-26T09:57:02.005Z,100478.38
2023-01-26T09:59:38.324Z,100477.00
2023-01-26T10:02:21.085Z,100476.69
2023-01-26T10:04:50.533Z,100477.22
2023-01-26T10:07:17.197Z,100483.25
2023-01-26T10:09:46.707Z,100486.53
2023-01-26T10:12:24.901Z,100480.75
2023-01-26T10:14:57.214Z,100474.72
2023-01-26T10:17:41.975Z,100471.16
2023-01-26T10:20:28.691Z,100469.78
2023-01-26T10:22:59.694Z,100473.34
2023-01-26T10:25:37.591Z,100465.66
2023-01-26T10:28:28.492Z,100475.53
2023-01-26T10:30:55.509Z,100461.28
2023-01-26T10:33:28.463Z,100462.63
2023-01-26T10:35:55.101Z,100461.25
2023-01-26T10:38:37.877Z,100467.53
2023-01-26T10:41:26.866Z,100457.97
2023-01-26T10:44:02.606Z,100451.63
2023-01-26T10:46:34.568Z,100453.50
2023-01-26T10:49:03.941Z,100447.50
2023-01-26T10:51:35.016Z,100454.06
2023-01-26T10:54:22.179Z,100456.84
2023-01-26T10:57:24.275Z,100451.63
2023-01-26T11:00:00.233Z,100446.16
2023-01-26T11:02:29.044Z,100441.47
2023-01-26T11:05:03.081Z,100438.25
2023-01-26T11:07:34.889Z,100433.56
2023-01-26T11:10:37.715Z,100431.94
2023-01-26T11:13:20.059Z,100441.53
2023-01-26T11:16:22.490Z,100441.00
2023-01-26T11:18:51.992Z,100444.56
2023-01-26T11:21:36.054Z,100440.75
2023-01-26T11:24:30.444Z,100441.84
2023-01-26T11:27:13.975Z,100433.81
2023-01-26T11:30:07.108Z,100433.03
2023-01-26T11:32:55.533Z,100427.78
2023-01-26T11:35:39.428Z,100411.59
2023-01-26T11:38:30.843Z,100416.28
2023-01-26T11:41:24.454Z,100419.88
2023-01-26T11:44:13.797Z,100415.72
2023-01-26T11:46:40.142Z,100410.53
2023-01-26T11:49:18.994Z,100406.69
2023-01-26T11:52:03.948Z,100398.72
2023-01-26T11:55:00.490Z,100400.66
2023-01-26T11:57:56.153Z,100401.44
2023-01-26T12:00:30.357Z,100395.97
2023-01-26T12:03:05.807Z,100391.56
2023-01-26T12:05:44.483Z,100389.34
2023-01-26T12:08:25.007Z,100382.50
2023-01-26T12:10:54.407Z,100386.09
2023-01-26T12:13:39.261Z,100378.97
2023-01-26T12:16:13.236Z,100375.06
2023-01-26T12:18:55.799Z,100367.38
2023-01-26T12:21:26.431Z,100369.25
2023-01-26T12:23:59.466Z,100360.44
2023-01-26T12:26:31.078Z,100365.44
2023-01-26T12:29:10.106Z,100360.53
2023-01-26T12:31:50.114Z,100353.75
2023-01-26T12:34:16.772Z,100360.09
2023-01-26T12:37:12.506Z,100364.22
2023-01-26T12:39:45.671Z,100356.84
2023-01-26T12:42:26.366Z,100362.91
2023-01-26T12:45:02.065Z,100360.66
2023-01-26T12:47:33.684Z,100346.41
2023-01-26T12:50:30.727Z,100344.16
2023-01-26T12:53:07.543Z,100346.88
2023-01-26T12:55:40.920Z,100351.56
2023-01-26T12:58:21.711Z,100335.91
2023-01-26T13:00:55.298Z,100337.41
2023-01-26T13:03:44.414Z,100322.00
2023-01-26T13:06:10.960Z,100329.97
2023-01-26T13:08:37.462Z,100329.97
2023-01-26T13:11:06.857Z,100325.84
2023-01-26T13:13:55.588Z,100327.50
2023-01-26T13:16:24.916Z,100326.94
2023-01-26T13:18:56.004Z,100333.19
2023-01-26T13:21:38.160Z,100340.25
2023-01-26T13:24:30.796Z,100346.06
2023-01-26T13:26:58.348Z,100341.88
2023-01-26T13:29:24.733Z,100337.75
2023-01-26T13:31:55.830Z,100341.31
2023-01-26T13:34:27.284Z,100321.00
2023-01-26T13:36:56.152Z,100330.09
2023-01-26T13:39:35.247Z,100332.25
2023-01-26T13:42:02.170Z,100328.94
2023-01-26T13:44:40.505Z,100330.66
2023-01-26T13:47:11.691Z,100336.97
2023-01-26T13:49:42.776Z,100336.97
2023-01-26T13:52:25.793Z,100343.25
2023-01-26T13:54:54.526Z,100346.06
2023-01-26T13:57:23.394Z,100344.66
2023-01-26T13:59:52.172Z,100344.25
2023-01-26T14:02:31.108Z,100349.47
2023-01-26T14:04:59.419Z,100354.38
2023-01-26T14:07:39.958Z,100342.09
2023-01-26T14:10:07.218Z,100337.97
2023-01-26T14:12:36.324Z,100335.78
2023-01-26T14:15:05.904Z,100334.16
2023-01-26T14:17:34.590Z,100335.53
2023-01-26T14:20:03.537Z,100338.28
2023-01-26T14:22:31.239Z,100325.91
2023-01-26T14:24:57.714Z,100331.41
2023-01-26T14:27:35.919Z,100335.78
2023-01-26T14:30:22.957Z,100338.53
2023-01-26T14:32:54.995Z,100339.34
2023-01-26T14:35:23.391Z,100339.03
2023-01-26T14:37:50.669Z,100332.78
2023-01-26T14:40:21.917Z,100337.97
2023-01-26T14:42:50.365Z,100339.34
2023-01-26T14:45:17.183Z,100339.66
2023-01-26T14:47:45.245Z,100345.16
2023-01-26T14:50:16.510Z,100333.91
2023-01-26T14:52:44.879Z,100342.72
2023-01-26T14:55:26.287Z,100336.97
2023-01-26T14:57:53.948Z,100345.44
2023-01-26T15:00:36.039Z,100348.78
2023-01-26T15:03:07.783Z,100348.78
2023-01-26T15:05:38.883Z,100344.66
2023-01-26T15:08:17.930Z,100347.63
2023-01-26T15:11:18.407Z,100358.06
2023-01-26T15:13:46.926Z,100354.75
2023-01-26T15:16:19.069Z,100353.69
2023-01-26T15:18:47.583Z,100346.84
2023-01-26T15:21:18.364Z,100357.81
2023-01-26T15:23:52.651Z,100354.53
2023-01-26T15:26:31.955Z,100365.50
2023-01-26T15:29:00.678Z,100353.16
2023-01-26T15:31:38.278Z,100357.84
2023-01-26T15:34:06.022Z,100358.69
2023-01-26T15:36:49.780Z,100362.50
2023-01-26T15:39:18.281Z,100359.78
2023-01-26T15:41:46.973Z,100361.16
2023-01-26T15:44:16.061Z,100364.44
2023-01-26T15:46:42.997Z,100362.25
2023-01-26T15:49:09.487Z,100360.31
2023-01-26T15:51:36.977Z,100365.00
2023-01-26T15:54:04.002Z,100363.63
2023-01-26T15:56:31.058Z,100366.66
2023-01-26T15:58:57.957Z,100361.72
2023-01-26T16:01:24.735Z,100367.22
2023-01-26T16:03:51.641Z,100367.22
2023-01-26T16:06:22.533Z,100374.88
2023-01-26T16:08:49.131Z,100372.13
2023-01-26T16:11:15.543Z,100367.22
2023-01-26T16:13:57.280Z,100371.03
2023-01-26T16:16:29.693Z,100373.53
2023-01-26T16:18:56.843Z,100376.53
2023-01-26T16:21:26.516Z,100375.69
2023-01-26T16:23:52.953Z,100375.69
2023-01-26T16:26:19.774Z,100380.91
2023-01-26T16:28:47.353Z,100377.06
2023-01-26T16:31:26.316Z,100370.50
2023-01-26T16:33:53.016Z,100381.72
2023-01-26T16:36:20.239Z,100383.94
2023-01-26T16:38:47.457Z,100380.66
2023-01-26T16:41:24.569Z,100372.72
2023-01-26T16:43:55.915Z,100379.00
2023-01-26T16:46:22.748Z,100385.88
2023-01-26T16:48:49.417Z,100384.50
2023-01-26T16:51:19.573Z,100383.94
2023-01-26T16:53:46.789Z,100376.28
2023-01-26T16:56:14.413Z,100376.53
2023-01-26T16:58:40.798Z,100373.25
2023-01-26T17:01:14.530Z,100376.00
2023-01-26T17:03:40.930Z,100373.53
2023-01-26T17:06:07.360Z,100378.19
2023-01-26T17:08:33.808Z,100377.66
2023-01-26T17:11:02.773Z,100379.00
2023-01-26T17:13:29.580Z,100389.97
2023-01-26T17:15:57.048Z,100383.69
2023-01-26T17:18:23.705Z,100383.66
2023-01-26T17:20:51.481Z,100387.75
2023-01-26T17:23:17.889Z,100380.09
2023-01-26T17:25:44.273Z,100391.03
2023-01-26T17:28:10.689Z,100393.22
2023-01-26T17:30:37.362Z,100398.16
2023-01-26T17:33:04.046Z,100395.41
2023-01-26T17:35:30.717Z,100396.78
2023-01-26T17:37:57.139Z,100408.28
2023-01-26T17:40:23.637Z,100402.81
2023-01-26T17:42:50.227Z,100405.81
2023-01-26T17:45:16.633Z,100402.81
2023-01-26T17:47:43.492Z,100401.72
2023-01-26T17:50:10.547Z,100395.16
2023-01-26T17:52:38.027Z,100399.25
2023-01-26T17:55:06.214Z,100405.00
2023-01-26T17:57:33.585Z,100405.59
2023-01-26T18:00:00.027Z,100402.00
2023-01-26T18:02:27.432Z,100396.81
2023-01-26T18:04:53.919Z,100408.28
2023-01-26T18:07:20.626Z,100411.88
2023-01-26T18:09:46.981Z,100417.06
2023-01-26T18:12:13.466Z,100417.06
2023-01-26T18:14:39.909Z,100419.25
2023-01-26T18:17:06.531Z,100408.84
2023-01-26T18:19:33.255Z,100414.59
2023-01-26T18:21:59.645Z,100416.50
2023-01-26T18:24:26.151Z,100418.41
2023-01-26T18:26:52.531Z,100417.84
2023-01-26T18:29:21.982Z,100413.22
2023-01-26T18:31:48.571Z,100415.97
2023-01-26T18:34:15.142Z,100420.03
2023-01-26T18:36:41.722Z,100416.22
2023-01-26T18:39:12.407Z,100418.97
2023-01-26T18:41:40.669Z,100424.16
2023-01-26T18:44:11.534Z,100420.34
2023-01-26T18:46:38.316Z,100429.63
2023-01-26T18:49:06.891Z,100428.81
2023-01-26T18:51:36.757Z,100423.91
2023-01-26T18:54:04.766Z,100431.56
2023-01-26T18:56:32.045Z,100427.44
2023-01-26T18:58:58.585Z,100427.72
2023-01-26T19:01:26.158Z,100431.84
2023-01-26T19:04:02.857Z,100432.94
2023-01-26T19:06:30.914Z,100428.56
2023-01-26T19:09:00.627Z,100429.09
2023-01-26T19:11:29.320Z,100427.44
2023-01-26T19:13:56.001Z,100420.34
2023-01-26T19:16:23.116Z,100429.66
2023-01-26T19:18:56.574Z,100421.69
2023-01-26T19:21:24.461Z,100429.91
2023-01-26T19:23:52.768Z,100417.88
2023-01-26T19:26:26.097Z,100418.16
2023-01-26T19:28:53.510Z,100419.78
2023-01-26T19:31:20.240Z,100411.56
2023-01-26T19:33:57.564Z,100418.97
2023-01-26T19:36:24.613Z,100420.34
2023-01-26T19:38:51.374Z,100417.88
2023-01-26T19:41:19.052Z,100418.16
2023-01-26T19:43:45.458Z,100417.59
2023-01-26T19:46:13.643Z,100427.72
2023-01-26T19:48:40.604Z,100422.25
2023-01-26T19:51:12.223Z,100422.53
2023-01-26T19:53:40.873Z,100423.06
2023-01-26T19:56:16.603Z,100424.97
2023-01-26T19:58:44.169Z,100429.09
2023-01-26T20:01:12.054Z,100424.72
2023-01-26T20:03:39.226Z,100423.88
2023-01-26T20:06:06.315Z,100422.53
2023-01-26T20:08:32.996Z,100426.91
2023-01-26T20:11:06.613Z,100418.69
2023-01-26T20:13:33.833Z,100416.50
2023-01-26T20:16:00.990Z,100415.66
2023-01-26T20:18:27.537Z,100412.94
2023-01-26T20:20:55.876Z,100413.19
2023-01-26T20:23:23.688Z,100414.56
2023-01-26T20:25:51.638Z,100408.56
2023-01-26T20:28:18.718Z,100411.56
2023-01-26T20:30:45.532Z,100401.72
2023-01-26T20:33:12.496Z,100405.28
2023-01-26T20:35:40.044Z,100400.06
2023-01-26T20:38:12.909Z,100389.94
2023-01-26T20:40:40.938Z,100392.41
2023-01-26T20:43:07.416Z,100394.59
2023-01-26T20:45:33.827Z,100398.16
2023-01-26T20:48:00.260Z,100387.47
2023-01-26T20:50:26.897Z,100400.91
2023-01-26T20:52:53.517Z,100398.97
2023-01-26T20:55:21.333Z,100400.91
2023-01-26T20:57:47.988Z,100399.53
2023-01-26T21:00:15.104Z,100403.91
2023-01-26T21:02:41.942Z,100399.25
2023-01-26T21:05:08.625Z,100407.19
2023-01-26T21:07:35.067Z,100408.28
2023-01-26T21:10:01.796Z,100413.78
2023-01-26T21:12:28.402Z,100413.78
2023-01-26T21:14:54.855Z,100419.78
2023-01-26T21:17:28.621Z,100426.38
2023-01-26T21:19:55.314Z,100423.06
2023-01-26T21:22:21.857Z,100417.88
2023-01-26T21:24:48.434Z,100415.97
2023-01-26T21:27:15.202Z,100413.75
2023-01-26T21:29:41.875Z,100405.56
2023-01-26T21:32:09.013Z,100411.84
2023-01-26T21:34:35.493Z,100416.47
2023-01-26T21:37:02.008Z,100418.97
2023-01-26T21:39:28.562Z,100414.84
2023-01-26T21:41:59.568Z,100406.91
2023-01-26T21:44:30.855Z,100404.19
2023-01-26T21:47:00.011Z,100415.41
2023-01-26T21:49:28.390Z,100417.31
2023-01-26T21:52:13.597Z,100421.97
2023-01-26T21:54:41.195Z,100425.53
2023-01-26T21:57:28.540Z,100420.88
2023-01-26T21:59:55.607Z,100421.97
2023-01-26T22:02:22.269Z,100427.72
2023-01-26T22:04:48.740Z,100422.50
2023-01-26T22:07:15.296Z,100429.34
2023-01-26T22:09:41.752Z,100421.13
2023-01-26T22:12:08.371Z,100409.63
2023-01-26T22:14:34.732Z,100421.97
2023-01-26T22:17:02.016Z,100424.97
2023-01-26T22:19:28.388Z,100425.53
2023-01-26T22:21:55.252Z,100414.31
2023-01-26T22:24:21.710Z,100421.94
2023-01-26T22:26:49.297Z,100407.72
2023-01-26T22:29:16.231Z,100406.34
2023-01-26T22:31:42.927Z,100415.38
2023-01-26T22:34:11.584Z,100410.44
2023-01-26T22:36:38.203Z,100397.81
2023-01-26T22:39:05.586Z,100395.13
2023-01-26T22:41:32.253Z,100390.22
2023-01-26T22:44:00.185Z,100397.59
2023-01-26T22:46:31.357Z,100393.47
2023-01-26T22:48:58.985Z,100394.03
2023-01-26T22:51:28.113Z,100400.88
2023-01-26T22:53:58.368Z,100397.59
2023-01-26T22:56:26.398Z,100404.41
2023-01-26T22:58:58.580Z,100403.88
2023-01-26T23:01:31.420Z,100397.03
2023-01-26T23:03:59.080Z,100403.06
2023-01-26T23:06:26.107Z,100403.88
2023-01-26T23:08:52.838Z,100404.41
2023-01-26T23:11:22.131Z,100408.53
2023-01-26T23:13:49.822Z,100408.28
2023-01-26T23:16:16.919Z,100405.25
2023-01-26T23:18:47.560Z,100412.38
2023-01-26T23:21:14.377Z,100405.81
2023-01-26T23:23:41.160Z,100401.97
2023-01-26T23:26:08.610Z,100415.94
2023-01-26T23:28:40.696Z,100418.94
2023-01-26T23:31:07.345Z,100411.28
2023-01-26T23:33:34.908Z,100412.38
2023-01-26T23:36:01.978Z,100411.28
2023-01-26T23:38:29.991Z,100412.66
2023-01-26T23:40:57.116Z,100399.78
2023-01-26T23:43:24.805Z,100397.59
2023-01-26T23:45:51.819Z,100397.84
2023-01-26T23:48:19.061Z,100404.72
2023-01-26T23:50:46.020Z,100402.25
2023-01-26T23:53:12.917Z,100404.97
2023-01-26T23:55:41.294Z,100396.78
2023-01-26T23:58:10.470Z,100401.97
